Time;durP1;ratioP1;P1;durP2;ratioP2;P2;SDS_P1;SDS_P2;PMS_P1;PMS_P2;Temp;Humidity;BMP_temperature;BMP_pressure;BME280_temperature;BME280_humidity;BME280_pressure;Samples;Min_cycle;Max_cycle;Signal;HPM_P1;HPM_P2
2021/09/16 03:59:06;;;;;;;0.20;0.20;;;;;;;8.14;77.66;96587.28;6180121;23;20533;-62
2021/09/16 04:01:31;;;;;;;0.20;0.20;;;;;;;8.03;78.17;96586.50;6184524;23;20029;-62
2021/09/16 04:03:57;;;;;;;0.20;0.20;;;;;;;7.92;78.39;96585.69;6158142;23;20331;-62
2021/09/16 04:06:23;;;;;;;0.20;0.20;;;;;;;7.83;78.54;96587.28;6157963;23;20038;-62
2021/09/16 04:08:48;;;;;;;0.20;0.20;;;;;;;7.75;78.51;96596.03;6184359;23;20036;-61
2021/09/16 04:11:14;;;;;;;0.20;0.20;;;;;;;7.68;78.67;96597.09;6184903;23;20009;-62
2021/09/16 04:13:40;;;;;;;0.20;0.20;;;;;;;7.66;78.67;96601.22;6184267;23;20005;-60
2021/09/16 04:16:05;;;;;;;0.20;0.20;;;;;;;7.65;78.73;96603.09;6184305;23;20043;-61
2021/09/16 04:18:31;;;;;;;0.25;0.20;;;;;;;7.67;78.49;96605.56;6184243;23;20454;-60
2021/09/16 04:20:57;;;;;;;0.20;0.20;;;;;;;7.71;78.54;96599.31;6184089;23;20077;-61
2021/09/16 04:23:23;;;;;;;0.20;0.20;;;;;;;7.71;78.52;96603.94;6157896;23;20017;-62
2021/09/16 04:25:48;;;;;;;0.20;0.20;;;;;;;7.69;78.22;96598.75;6184464;23;20081;-64
2021/09/16 04:28:14;;;;;;;0.20;0.20;;;;;;;7.72;78.18;96606.41;6183766;23;20339;-62
2021/09/16 04:30:40;;;;;;;0.30;0.30;;;;;;;7.76;78.05;96603.13;6183833;23;20013;-63
2021/09/16 04:33:05;;;;;;;0.20;0.20;;;;;;;7.76;78.28;96603.13;6183516;23;20004;-62
2021/09/16 04:35:31;;;;;;;0.20;0.20;;;;;;;7.78;78.17;96606.41;6184626;23;20013;-63
2021/09/16 04:37:57;;;;;;;0.17;0.17;;;;;;;7.81;78.04;96606.69;6185005;23;20085;-62
2021/09/16 04:40:22;;;;;;;0.20;0.20;;;;;;;7.86;77.89;96603.13;6184631;23;20009;-64
2021/09/16 04:42:49;;;;;;;0.20;0.20;;;;;;;7.89;77.85;96602.59;6185076;23;20445;-62
2021/09/16 04:45:15;;;;;;;0.40;0.22;;;;;;;7.98;77.68;96606.44;6185094;23;20044;-66
2021/09/16 04:47:41;;;;;;;0.20;0.20;;;;;;;8.09;77.15;96590.03;6184902;23;20016;-64
2021/09/16 04:50:11;;;;;;;0.20;0.20;;;;;;;8.19;77.14;96584.56;6184481;23;20008;-64
2021/09/16 04:52:37;;;;;;;0.20;0.20;;;;;;;8.25;76.77;96581.56;6184877;23;20017;-63
2021/09/16 04:55:03;;;;;;;0.20;0.20;;;;;;;8.32;76.65;96580.44;6183206;23;20012;-63
2021/09/16 04:57:29;;;;;;;0.20;0.20;;;;;;;8.36;76.60;96587.84;6184410;23;20487;-66
2021/09/16 04:59:55;;;;;;;0.20;0.20;;;;;;;8.38;76.50;96582.91;6184557;23;20096;-63
2021/09/16 05:02:20;;;;;;;0.30;0.30;;;;;;;8.38;76.82;96576.63;6184945;23;20027;-61
2021/09/16 05:04:46;;;;;;;0.20;0.20;;;;;;;8.36;76.59;96578.81;6184512;23;20013;-62
2021/09/16 05:07:12;;;;;;;0.10;0.10;;;;;;;8.28;76.98;96571.19;6184477;23;20021;-63
2021/09/16 05:09:38;;;;;;;0.20;0.20;;;;;;;8.20;76.85;96578.00;6184970;23;20013;-62
2021/09/16 05:12:04;;;;;;;0.20;0.20;;;;;;;8.15;76.91;96570.63;6184512;23;20008;-62
2021/09/16 05:14:30;;;;;;;0.20;0.20;;;;;;;8.13;77.11;96582.94;6184715;23;20473;-62
2021/09/16 05:16:55;;;;;;;0.20;0.20;;;;;;;8.09;77.15;96573.66;6184321;23;20040;-61
2021/09/16 05:19:21;;;;;;;0.20;0.20;;;;;;;8.07;77.36;96576.66;6184468;23;20036;-62
2021/09/16 05:21:47;;;;;;;0.82;0.57;;;;;;;8.04;77.23;96575.28;6184734;23;20013;-64
2021/09/16 05:24:18;;;;;;;0.20;0.20;;;;;;;8.10;77.00;96575.25;6183035;23;20013;-62
2021/09/16 05:26:45;;;;;;;0.20;0.20;;;;;;;8.15;76.97;96572.53;6186019;23;20009;-62
2021/09/16 05:29:11;;;;;;;0.20;0.20;;;;;;;8.26;76.73;96574.19;6184030;23;20043;-61
2021/09/16 05:31:38;;;;;;;0.13;0.13;;;;;;;8.46;76.28;96572.53;6181355;23;20009;-71
2021/09/16 05:34:04;;;;;;;0.30;0.22;;;;;;;8.64;76.08;96577.41;6183321;23;20013;-63
2021/09/16 05:36:31;;;;;;;0.20;0.20;;;;;;;8.72;75.69;96565.09;6182911;23;20136;-64
2021/09/16 05:38:56;;;;;;;0.20;0.20;;;;;;;8.68;75.63;96575.75;6183029;23;20013;-62
2021/09/16 05:41:23;;;;;;;0.20;0.20;;;;;;;8.61;75.66;96575.22;6182668;23;20024;-61
2021/09/16 05:43:50;;;;;;;0.40;0.40;;;;;;;8.47;76.22;96579.66;6182729;23;20033;-61
2021/09/16 05:46:16;;;;;;;0.20;0.20;;;;;;;8.32;76.44;96589.50;6182783;23;20036;-61
2021/09/16 05:48:42;;;;;;;0.30;0.30;;;;;;;8.20;76.70;96589.78;6182940;23;20461;-61
2021/09/16 05:51:08;;;;;;;0.52;0.52;;;;;;;8.17;77.21;96586.75;6182828;23;20013;-62
2021/09/16 05:53:34;;;;;;;0.20;0.20;;;;;;;8.19;77.12;96585.38;6182528;23;20017;-60
2021/09/16 05:55:59;;;;;;;0.17;0.17;;;;;;;8.29;76.85;96579.09;6183061;23;20049;-62
2021/09/16 05:58:25;;;;;;;0.20;0.20;;;;;;;8.40;76.33;96588.91;6182220;23;20048;-61
2021/09/16 06:00:51;;;;;;;0.20;0.20;;;;;;;8.52;76.21;96580.44;6182137;23;20021;-61
2021/09/16 06:03:16;;;;;;;0.30;0.30;;;;;;;8.72;75.64;96576.84;6182014;23;20358;-61
2021/09/16 06:05:42;;;;;;;0.20;0.20;;;;;;;8.91;75.47;96589.94;6181947;23;20095;-61
2021/09/16 06:08:08;;;;;;;0.20;0.20;;;;;;;9.09;74.88;96578.38;6183100;23;20397;-61
2021/09/16 06:10:33;;;;;;;0.20;0.20;;;;;;;9.14;74.89;96587.66;6183640;23;20013;-62
2021/09/16 06:12:59;;;;;;;0.20;0.20;;;;;;;9.16;74.60;96580.81;6183545;23;20461;-61
2021/09/16 06:15:25;;;;;;;0.20;0.20;;;;;;;9.33;74.14;96574.97;6183933;23;20140;-61
2021/09/16 06:17:50;;;;;;;0.20;0.20;;;;;;;9.51;73.85;96573.53;6183291;23;20358;-62
2021/09/16 06:20:16;;;;;;;0.20;0.20;;;;;;;9.65;73.61;96579.19;6183389;23;20012;-61
2021/09/16 06:22:46;;;;;;;0.20;0.20;;;;;;;9.92;73.08;96575.16;6183730;23;20015;-61
2021/09/16 06:25:14;;;;;;;0.20;0.20;;;;;;;9.94;73.33;96573.78;6183232;23;20009;-58
2021/09/16 06:27:40;;;;;;;0.20;0.20;;;;;;;9.74;73.99;96584.88;6183052;23;20104;-60
2021/09/16 06:30:06;;;;;;;0.30;0.30;;;;;;;9.47;74.51;96573.25;6183144;23;20394;-61
2021/09/16 06:32:33;;;;;;;0.20;0.20;;;;;;;9.19;75.10;96576.69;6183050;23;20013;-61
2021/09/16 06:34:59;;;;;;;0.40;0.40;;;;;;;8.90;76.07;96571.88;6183448;23;20009;-60
2021/09/16 06:37:25;;;;;;;0.20;0.20;;;;;;;8.72;76.72;96579.59;6183148;23;20084;-62
2021/09/16 06:39:51;;;;;;;0.20;0.20;;;;;;;8.80;76.16;96582.84;6183637;23;20032;-63
2021/09/16 06:49:46;;;;;;;0.32;0.32;;;;;;;9.92;73.09;96569.66;6178658;23;20024;-60
2021/09/16 06:52:51;;;;;;;0.20;0.20;;;;;;;10.03;73.18;96575.91;6182900;23;20012;-61
2021/09/16 06:55:37;;;;;;;;;;;;;;;10.04;72.87;96572.03;6183471;23;20009;-61
2021/09/16 06:58:42;;;;;;;0.28;0.28;;;;;;;9.80;73.36;96573.63;6182325;23;19912;-65
2021/09/16 07:04:31;;;;;;;0.20;0.20;;;;;;;9.16;75.07;96585.44;6180349;23;20028;-59
2021/09/16 07:06:59;;;;;;;0.28;0.28;;;;;;;8.99;75.36;96572.94;6182759;23;20090;-61
2021/09/16 07:09:25;;;;;;;0.20;0.20;;;;;;;9.06;75.06;96575.38;6182810;23;20051;-59
2021/09/16 07:11:51;;;;;;;0.20;0.20;;;;;;;9.17;74.68;96582.47;6182362;23;20008;-61
2021/09/16 07:14:16;;;;;;;0.10;0.10;;;;;;;9.20;74.56;96584.63;6182557;23;20087;-61
2021/09/16 07:16:42;;;;;;;0.15;0.15;;;;;;;9.10;74.71;96585.50;6180646;23;20079;-62
2021/09/16 07:19:08;;;;;;;0.20;0.20;;;;;;;8.92;75.25;96586.94;6182593;23;20013;-61
2021/09/16 07:21:34;;;;;;;0.20;0.20;;;;;;;8.77;75.53;96590.53;6182744;23;20434;-61
2021/09/16 07:23:59;;;;;;;0.30;0.30;;;;;;;8.74;75.87;96598.47;6182734;23;20088;-63
2021/09/16 07:26:26;;;;;;;0.20;0.20;;;;;;;8.76;75.49;96588.88;6182025;23;20136;-61
2021/09/16 07:28:51;;;;;;;0.20;0.20;;;;;;;8.76;75.28;96599.03;6181384;23;20020;-63
2021/09/16 07:31:19;;;;;;;0.20;0.20;;;;;;;8.92;75.04;96594.31;6176079;23;20013;-61
2021/09/16 07:33:45;;;;;;;0.20;0.20;;;;;;;9.31;74.32;96592.81;6182209;23;20016;-62
2021/09/16 07:36:11;;;;;;;0.20;0.20;;;;;;;9.65;73.43;96595.63;6182547;23;20519;-62
2021/09/16 07:38:37;;;;;;;0.20;0.20;;;;;;;9.86;72.93;96598.22;6182166;23;20009;-61
2021/09/16 07:41:02;;;;;;;0.20;0.20;;;;;;;9.92;72.45;96586.13;6182159;23;20040;-62
2021/09/16 07:43:28;;;;;;;0.30;0.30;;;;;;;9.82;72.87;96592.50;6181936;23;20017;-60
2021/09/16 07:45:54;;;;;;;0.10;0.10;;;;;;;9.59;73.26;96589.34;6182025;23;20013;-62
2021/09/16 07:48:21;;;;;;;0.20;0.20;;;;;;;9.39;73.86;96603.16;6182652;23;20013;-61
2021/09/16 07:50:47;;;;;;;0.10;0.10;;;;;;;9.29;74.31;96599.38;6182024;23;20009;-62
2021/09/16 07:53:13;;;;;;;0.20;0.20;;;;;;;9.25;74.47;96603.75;6182506;23;20013;-62
2021/09/16 07:55:39;;;;;;;0.20;0.20;;;;;;;9.28;74.33;96597.72;6155362;23;20053;-61
2021/09/16 07:58:06;;;;;;;0.25;0.22;;;;;;;9.35;73.96;96604.81;6182109;23;20012;-61
2021/09/16 08:00:33;;;;;;;0.20;0.20;;;;;;;9.34;73.99;96603.19;6182397;23;20025;-61
2021/09/16 08:02:58;;;;;;;0.20;0.20;;;;;;;9.29;73.79;96595.81;6182709;23;20401;-61
2021/09/16 08:05:24;;;;;;;0.17;0.17;;;;;;;9.23;73.75;96603.25;6182802;23;20645;-63
2021/09/16 08:07:50;;;;;;;0.20;0.20;;;;;;;9.05;74.08;96612.06;6182593;23;20013;-64
2021/09/16 08:10:16;;;;;;;0.20;0.20;;;;;;;8.92;74.60;96613.47;6183107;23;20017;-60
2021/09/16 08:12:42;;;;;;;0.20;0.20;;;;;;;8.96;74.38;96608.25;6182657;23;20020;-62
2021/09/16 08:15:09;;;;;;;0.20;0.20;;;;;;;9.09;73.90;96608.47;6182196;23;20136;-60
2021/09/16 08:17:35;;;;;;;0.20;0.20;;;;;;;9.21;73.58;96615.56;6182482;23;20040;-61
2021/09/16 08:20:44;;;;;;;0.38;0.30;;;;;;;9.51;72.69;96608.28;6180855;23;20016;-63
2021/09/16 08:29:56;;;;;;;0.17;0.17;;;;;;;9.63;72.26;96620.56;6176132;23;20083;-60
2021/09/16 08:32:22;;;;;;;0.20;0.20;;;;;;;9.76;72.03;96612.81;6181652;23;20013;-61
2021/09/16 08:34:47;;;;;;;0.20;0.20;;;;;;;9.85;71.92;96621.25;6181649;23;20079;-60
2021/09/16 08:37:13;;;;;;;0.25;0.25;;;;;;;9.80;71.75;96628.44;6181733;23;20757;-62
2021/09/16 08:39:39;;;;;;;0.20;0.20;;;;;;;9.93;71.76;96621.47;6155201;23;20431;-65
2021/09/16 08:42:06;;;;;;;0.30;0.30;;;;;;;10.04;71.29;96627.72;6181704;23;20087;-63
2021/09/16 08:44:32;;;;;;;0.20;0.20;;;;;;;9.95;71.34;96624.75;6181353;23;20013;-63
2021/09/16 08:46:58;;;;;;;0.15;0.15;;;;;;;9.84;71.57;96622.38;6181456;23;20017;-63
2021/09/16 08:49:24;;;;;;;0.25;0.25;;;;;;;10.01;71.29;96622.78;6181553;23;20013;-63
2021/09/16 08:51:50;;;;;;;0.30;0.30;;;;;;;10.41;70.57;96629.09;6181564;23;20085;-63
2021/09/16 08:54:19;;;;;;;0.20;0.20;;;;;;;10.80;69.26;96622.69;6182109;23;20036;-62
2021/09/16 08:56:45;;;;;;;1.45;0.30;;;;;;;11.03;68.90;96631.25;6182049;23;20016;-62
2021/09/16 08:59:11;;;;;;;0.30;0.30;;;;;;;10.84;69.22;96626.50;6181540;23;20009;-62
2021/09/16 09:01:37;;;;;;;0.20;0.20;;;;;;;10.70;69.90;96631.03;6181943;23;20023;-65
2021/09/16 09:04:03;;;;;;;0.22;0.22;;;;;;;10.67;69.98;96626.97;6181984;23;20009;-67
2021/09/16 09:06:36;;;;;;;0.20;0.20;;;;;;;10.97;69.64;96627.75;6182689;23;20350;-65
2021/09/16 09:09:16;;;;;;;0.10;0.10;;;;;;;11.36;68.41;96629.47;6182152;23;20020;-68
2021/09/16 09:12:00;;;;;;;1.27;0.38;;;;;;;11.70;67.73;96622.19;6182716;23;20064;-64
2021/09/16 09:14:29;;;;;;;;;;;;;;;11.79;67.71;96627.84;6183008;23;20012;-64
2021/09/16 09:16:55;;;;;;;0.22;0.22;;;;;;;11.74;67.91;96635.03;6182066;23;19908;-63
2021/09/16 09:19:24;;;;;;;0.50;0.50;;;;;;;11.60;68.14;96623.16;6180771;23;20040;-66
2021/09/16 09:21:50;;;;;;;0.20;0.20;;;;;;;11.20;69.36;96634.38;6182578;23;20036;-65
2021/09/16 09:24:41;;;;;;;0.30;0.30;;;;;;;10.70;70.29;96639.25;6183771;23;20020;-65
2021/09/16 09:27:34;;;;;;;0.17;0.17;;;;;;;10.36;71.15;96636.56;6183601;23;20016;-65
2021/09/16 09:30:11;;;;;;;0.22;0.22;;;;;;;10.44;71.31;96636.75;6183432;23;20013;-65
2021/09/16 09:33:06;;;;;;;0.20;0.20;;;;;;;10.75;70.43;96633.75;6184111;23;20071;-64
2021/09/16 09:35:44;;;;;;;0.28;0.28;;;;;;;10.94;69.56;96633.00;6182742;23;20013;-65
2021/09/16 09:38:18;;;;;;;0.20;0.20;;;;;;;11.01;69.27;96628.81;6157122;23;20047;-63
2021/09/16 09:40:47;;;;;;;0.20;0.20;;;;;;;10.99;69.34;96633.75;6183474;23;20009;-65
2021/09/16 09:43:31;;;;;;;0.20;0.20;;;;;;;10.90;69.65;96637.44;6183524;23;20082;-64
2021/09/16 09:46:12;;;;;;;0.13;0.13;;;;;;;10.69;70.30;96640.38;6183421;23;20013;-63
2021/09/16 09:48:59;;;;;;;0.20;0.20;;;;;;;10.23;71.13;96632.50;6183567;23;20020;-63
2021/09/16 09:51:40;;;;;;;0.20;0.20;;;;;;;10.03;71.42;96628.81;6183038;23;20017;-63
2021/09/16 09:54:35;;;;;;;0.30;0.30;;;;;;;10.06;71.09;96635.66;6183210;23;20024;-63
2021/09/16 09:57:09;;;;;;;0.20;0.20;;;;;;;10.00;70.99;96640.34;6181270;23;20454;-63
2021/09/16 10:00:04;;;;;;;0.30;0.30;;;;;;;10.00;70.69;96649.38;6181854;23;20571;-64
2021/09/16 10:02:41;;;;;;;0.20;0.20;;;;;;;10.17;70.54;96648.19;6177944;23;20060;-64
2021/09/16 10:05:32;;;;;;;0.40;0.40;;;;;;;10.31;69.71;96642.88;6183604;23;20367;-64
2021/09/16 10:08:06;;;;;;;0.20;0.20;;;;;;;10.39;69.38;96639.53;6183021;23;20013;-63
2021/09/16 10:10:43;;;;;;;0.10;0.10;;;;;;;10.37;69.08;96641.75;6183107;23;20056;-66
2021/09/16 10:13:17;;;;;;;0.10;0.10;;;;;;;10.37;69.20;96647.25;6182543;23;20044;-64
2021/09/16 10:15:47;;;;;;;0.20;0.20;;;;;;;10.43;68.96;96659.81;6183513;23;20039;-64
2021/09/16 10:18:13;;;;;;;0.20;0.20;;;;;;;10.54;68.68;96643.25;6183312;23;20756;-64
2021/09/16 10:20:39;;;;;;;0.20;0.20;;;;;;;10.55;68.52;96650.41;6182571;23;20019;-64
2021/09/16 10:23:06;;;;;;;0.20;0.20;;;;;;;10.57;68.27;96640.78;6183220;23;20009;-63
2021/09/16 10:25:41;;;;;;;0.30;0.30;;;;;;;10.59;67.89;96646.78;6156033;23;20017;-63
2021/09/16 10:28:07;;;;;;;0.10;0.10;;;;;;;10.63;67.66;96633.28;6181809;23;20013;-62
2021/09/16 10:30:40;;;;;;;0.20;0.20;;;;;;;10.66;67.64;96649.22;6181111;23;20013;-64
2021/09/16 10:33:12;;;;;;;0.20;0.20;;;;;;;10.73;67.80;96638.69;6182194;23;20421;-63
2021/09/16 10:35:44;;;;;;;0.20;0.20;;;;;;;10.79;67.64;96650.44;6182867;23;20041;-63
2021/09/16 10:38:35;;;;;;;0.20;0.20;;;;;;;10.87;67.43;96649.81;6182753;23;20012;-64
2021/09/16 10:41:22;;;;;;;3.20;0.30;;;;;;;10.99;67.07;96647.47;6182602;23;20013;-64
2021/09/16 10:43:48;;;;;;;0.20;0.20;;;;;;;10.93;66.90;96656.88;6156086;23;20346;-64
2021/09/16 10:46:35;;;;;;;0.65;0.65;;;;;;;10.97;66.90;96654.41;6183001;23;20012;-63
2021/09/16 10:49:19;;;;;;;0.20;0.20;;;;;;;11.02;66.75;96646.09;6182194;23;20013;-65
2021/09/16 10:51:46;;;;;;;0.20;0.20;;;;;;;10.93;66.87;96643.16;6182546;23;20064;-64
2021/09/16 10:54:24;;;;;;;0.20;0.20;;;;;;;10.76;67.50;96645.53;6182409;23;20060;-65
2021/09/16 10:57:16;;;;;;;0.45;0.45;;;;;;;10.56;67.90;96644.63;6182509;23;20402;-65
2021/09/16 10:59:51;;;;;;;0.25;0.25;;;;;;;10.38;68.30;96645.31;6181633;23;20048;-63
2021/09/16 11:02:22;;;;;;;0.20;0.20;;;;;;;10.27;68.51;96644.56;6182470;23;20013;-64
2021/09/16 11:04:54;;;;;;;0.20;0.20;;;;;;;10.11;68.44;96643.84;6181925;23;20350;-65
2021/09/16 11:07:35;;;;;;;0.20;0.20;;;;;;;9.94;68.89;96646.97;6181194;23;20418;-62
2021/09/16 11:10:16;;;;;;;0.20;0.20;;;;;;;9.79;69.14;96648.72;6179733;23;20037;-64
2021/09/16 11:13:06;;;;;;;0.20;0.20;;;;;;;9.72;69.21;96648.19;6182271;23;20017;-64
2021/09/16 11:15:38;;;;;;;0.20;0.20;;;;;;;9.73;69.22;96654.47;6182052;23;20017;-65
2021/09/16 11:18:08;;;;;;;0.20;0.20;;;;;;;9.74;68.87;96656.13;6181926;23;20017;-65
2021/09/16 11:20:35;;;;;;;0.20;0.20;;;;;;;9.73;68.70;96652.59;6181660;23;20052;-64
2021/09/16 11:23:01;;;;;;;0.20;0.20;;;;;;;9.67;68.89;96661.09;6181809;23;20013;-64
2021/09/16 11:25:34;;;;;;;0.20;0.20;;;;;;;9.60;69.02;96650.47;6182216;23;20453;-65
2021/09/16 11:28:00;;;;;;;0.30;0.30;;;;;;;9.53;69.05;96660.91;6181790;23;21031;-64
2021/09/16 11:30:26;;;;;;;0.30;0.30;;;;;;;9.51;69.05;96652.97;6181566;23;20041;-63
2021/09/16 11:32:51;;;;;;;0.20;0.20;;;;;;;9.42;69.19;96660.09;6181921;23;20019;-64
2021/09/16 11:35:20;;;;;;;0.20;0.20;;;;;;;9.39;69.15;96655.19;6181332;23;20501;-65
2021/09/16 11:37:50;;;;;;;0.45;0.45;;;;;;;9.49;68.98;96640.66;6182439;23;20017;-64
2021/09/16 11:40:24;;;;;;;0.22;0.22;;;;;;;9.64;67.98;96637.81;6182445;23;20051;-65
2021/09/16 11:42:52;;;;;;;0.20;0.20;;;;;;;9.74;67.97;96639.69;6181981;23;20017;-64
2021/09/16 11:45:23;;;;;;;0.20;0.20;;;;;;;9.79;67.86;96636.91;6181767;23;20013;-64
2021/09/16 11:48:16;;;;;;;0.40;0.40;;;;;;;9.89;67.37;96641.53;6181376;23;20009;-63
2021/09/16 11:50:48;;;;;;;0.68;0.28;;;;;;;9.98;67.25;96637.91;6181538;23;20020;-63
2021/09/16 11:53:16;;;;;;;0.20;0.20;;;;;;;9.91;67.07;96633.81;6182088;23;20679;-66
2021/09/16 11:55:51;;;;;;;0.20;0.20;;;;;;;9.86;67.19;96631.94;6182360;23;20036;-65
2021/09/16 11:58:19;;;;;;;0.40;0.40;;;;;;;9.82;67.21;96628.94;6182123;23;20009;-63
2021/09/16 12:00:47;;;;;;;0.17;0.17;;;;;;;9.89;67.13;96633.28;6182162;23;20398;-65
2021/09/16 12:03:18;;;;;;;0.32;0.32;;;;;;;9.79;67.27;96637.75;6182115;23;20023;-63
2021/09/16 12:05:46;;;;;;;0.20;0.20;;;;;;;9.77;67.38;96630.91;6182229;23;20013;-64
2021/09/16 12:08:21;;;;;;;0.10;0.10;;;;;;;9.72;67.39;96629.00;6182941;23;20013;-65
2021/09/16 12:11:09;;;;;;;1.48;0.73;;;;;;;9.59;68.03;96622.22;6181319;23;20016;-67
2021/09/16 12:13:39;;;;;;;0.10;0.10;;;;;;;9.40;68.43;96622.03;6182822;23;20104;-67
2021/09/16 12:16:11;;;;;;;0.20;0.20;;;;;;;9.28;68.31;96622.38;6182705;23;20020;-59
2021/09/16 12:18:43;;;;;;;1.40;1.30;;;;;;;9.18;68.76;96619.69;6182364;23;20095;-61
2021/09/16 12:21:16;;;;;;;0.75;0.52;;;;;;;9.10;68.78;96626.56;6180317;23;20024;-63
2021/09/16 12:23:49;;;;;;;0.20;0.20;;;;;;;8.98;68.62;96625.22;6182686;23;20508;-65
2021/09/16 12:26:18;;;;;;;0.50;0.50;;;;;;;8.71;69.01;96635.41;6182843;23;20075;-62
2021/09/16 12:28:51;;;;;;;0.20;0.20;;;;;;;8.35;69.69;96627.22;6181880;23;20233;-61
2021/09/16 12:31:21;;;;;;;0.68;0.68;;;;;;;8.07;70.57;96623.94;6182255;23;20060;-63
2021/09/16 12:33:55;;;;;;;0.50;0.30;;;;;;;7.99;70.51;96635.38;6182085;23;20012;-63
2021/09/16 12:36:22;;;;;;;0.45;0.45;;;;;;;8.02;70.28;96623.94;6182376;23;20013;-63
2021/09/16 12:38:50;;;;;;;0.30;0.30;;;;;;;8.07;70.11;96632.13;6182511;23;20013;-61
2021/09/16 12:41:23;;;;;;;0.20;0.20;;;;;;;8.14;69.70;96626.41;6182285;23;20020;-60
2021/09/16 12:44:25;;;;;;;0.10;0.10;;;;;;;8.22;69.60;96634.03;6183245;23;20045;-62
2021/09/16 12:46:59;;;;;;;0.30;0.30;;;;;;;8.26;69.44;96628.88;6172796;23;20024;-65
2021/09/16 12:49:38;;;;;;;0.15;0.15;;;;;;;8.30;69.42;96629.13;6181317;23;20113;-63
2021/09/16 12:52:06;;;;;;;0.20;0.20;;;;;;;8.29;69.05;96631.06;6182381;23;20013;-61
2021/09/16 12:54:33;;;;;;;0.30;0.30;;;;;;;8.27;69.02;96627.75;6182599;23;20445;-64
2021/09/16 12:57:03;;;;;;;0.30;0.30;;;;;;;8.20;69.19;96627.19;6182736;23;20013;-64
2021/09/16 12:59:33;;;;;;;0.47;0.43;;;;;;;8.16;69.31;96617.94;6183802;23;20025;-63
2021/09/16 13:02:18;;;;;;;0.20;0.20;;;;;;;8.16;69.29;96624.22;6183058;23;20031;-65
2021/09/16 13:05:03;;;;;;;0.20;0.20;;;;;;;8.17;69.41;96625.84;6184565;23;20350;-64
2021/09/16 13:07:30;;;;;;;;;;;;;;;8.13;69.41;96623.94;6184519;23;20058;-62
2021/09/16 13:10:15;;;;;;;4.57;0.40;;;;;;;8.13;69.22;96613.00;6184512;23;19912;-63
2021/09/16 13:12:47;;;;;;;0.20;0.20;;;;;;;8.15;69.20;96617.09;6184032;23;20017;-64
2021/09/16 13:15:15;;;;;;;0.52;0.30;;;;;;;8.22;68.94;96620.38;6184417;23;20009;-63
2021/09/16 13:17:41;;;;;;;0.35;0.35;;;;;;;8.25;68.90;96622.56;6184292;23;20442;-61
2021/09/16 13:20:08;;;;;;;0.65;0.60;;;;;;;8.28;69.04;96614.91;6184025;23;20009;-64
2021/09/16 13:22:36;;;;;;;0.38;0.38;;;;;;;8.34;68.66;96614.63;6184025;23;20020;-63
2021/09/16 13:25:04;;;;;;;0.68;0.68;;;;;;;8.32;68.69;96613.25;6184208;23;20096;-61
2021/09/16 13:27:30;;;;;;;0.43;0.43;;;;;;;8.25;69.09;96616.28;6183840;23;20397;-63
2021/09/16 13:29:56;;;;;;;0.35;0.35;;;;;;;8.20;69.17;96617.09;6183661;23;20009;-61
2021/09/16 13:32:22;;;;;;;1.88;0.75;;;;;;;8.12;69.24;96619.56;6183978;23;20013;-61
2021/09/16 13:34:47;;;;;;;0.50;0.50;;;;;;;8.06;69.38;96616.00;6183945;23;20327;-64
2021/09/16 13:37:13;;;;;;;0.22;0.22;;;;;;;8.04;69.63;96620.94;6183495;23;20490;-63
2021/09/16 13:39:39;;;;;;;0.30;0.30;;;;;;;8.00;69.47;96623.38;6182433;23;20436;-61
2021/09/16 13:42:05;;;;;;;0.25;0.25;;;;;;;7.93;69.66;96617.34;6183802;23;20446;-63
2021/09/16 13:44:31;;;;;;;0.25;0.25;;;;;;;7.90;69.89;96609.69;6183822;23;20063;-63
2021/09/16 13:46:57;;;;;;;0.40;0.40;;;;;;;7.91;69.85;96618.75;6183555;23;20335;-62
2021/09/16 13:49:22;;;;;;;0.57;0.57;;;;;;;7.92;69.88;96614.91;6183354;23;20013;-64
2021/09/16 13:51:48;;;;;;;0.38;0.38;;;;;;;7.91;69.82;96621.47;6183962;23;20461;-64
2021/09/16 13:54:14;;;;;;;0.50;0.50;;;;;;;7.85;69.90;96613.25;6183306;23;20037;-63
2021/09/16 13:56:39;;;;;;;0.30;0.30;;;;;;;7.79;70.17;96613.50;6182925;23;20013;-63
2021/09/16 13:59:05;;;;;;;0.30;0.30;;;;;;;7.72;70.27;96619.25;6182278;23;20008;-64
2021/09/16 14:01:31;;;;;;;0.32;0.32;;;;;;;7.65;70.33;96622.22;6183463;23;20024;-62
2021/09/16 14:03:57;;;;;;;0.25;0.25;;;;;;;7.54;70.62;96626.84;6183539;23;20037;-65
2021/09/16 14:06:23;;;;;;;0.28;0.28;;;;;;;7.47;70.62;96630.94;6183215;23;20435;-63
2021/09/16 14:08:49;;;;;;;0.40;0.38;;;;;;;7.41;70.85;96623.81;6182091;23;20013;-66
2021/09/16 14:11:15;;;;;;;0.85;0.85;;;;;;;7.35;70.77;96629.25;6183545;23;20350;-63
2021/09/16 14:13:42;;;;;;;0.40;0.40;;;;;;;7.31;71.00;96628.13;6183533;23;20331;-64
2021/09/16 14:16:08;;;;;;;0.22;0.22;;;;;;;7.28;70.67;96625.94;6183568;23;20327;-61
2021/09/16 14:18:34;;;;;;;0.20;0.20;;;;;;;7.24;70.82;96624.81;6156976;23;20013;-65
2021/09/16 14:21:01;;;;;;;0.30;0.30;;;;;;;7.26;70.62;96628.13;6183389;23;20013;-62
2021/09/16 14:23:27;;;;;;;0.20;0.20;;;;;;;7.26;70.69;96625.41;6183074;23;20016;-62
2021/09/16 14:25:53;;;;;;;0.10;0.10;;;;;;;7.25;70.64;96626.47;6183294;23;20020;-62
2021/09/16 14:28:19;;;;;;;0.68;0.30;;;;;;;7.23;70.55;96625.94;6182500;23;20017;-63
2021/09/16 14:30:44;;;;;;;0.20;0.20;;;;;;;7.22;70.69;96620.75;6183193;23;20048;-61
2021/09/16 14:33:11;;;;;;;2.13;1.15;;;;;;;7.18;70.63;96624.00;6182995;23;20349;-63
2021/09/16 14:35:38;;;;;;;0.25;0.25;;;;;;;7.20;70.52;96618.28;6181065;23;20036;-60
2021/09/16 14:38:05;;;;;;;0.30;0.30;;;;;;;7.19;70.62;96613.91;6182208;23;20352;-62
2021/09/16 14:40:31;;;;;;;0.20;0.20;;;;;;;7.21;70.75;96614.44;6181657;23;20009;-65
2021/09/16 14:42:57;;;;;;;0.25;0.25;;;;;;;7.22;70.53;96620.75;6181930;23;20071;-64
2021/09/16 14:45:23;;;;;;;0.20;0.20;;;;;;;7.22;70.60;96618.81;6181882;23;20389;-65
2021/09/16 14:47:51;;;;;;;0.20;0.20;;;;;;;7.16;70.71;96611.72;6181909;23;20044;-66
2021/09/16 14:50:17;;;;;;;0.20;0.20;;;;;;;7.09;70.76;96617.41;6180159;23;20115;-62
2021/09/16 14:52:42;;;;;;;0.28;0.28;;;;;;;7.01;71.11;96616.00;6181546;23;20323;-61
2021/09/16 14:55:10;;;;;;;0.22;0.22;;;;;;;6.97;71.21;96608.63;6181818;23;20009;-61
2021/09/16 14:57:36;;;;;;;0.20;0.20;;;;;;;6.89;71.12;96609.97;6180172;23;20083;-62
2021/09/16 15:00:03;;;;;;;0.45;0.45;;;;;;;6.89;71.03;96604.50;6179053;23;20469;-62
2021/09/16 15:02:29;;;;;;;0.20;0.20;;;;;;;6.91;71.01;96604.25;6179503;23;20045;-62
2021/09/16 15:04:57;;;;;;;0.20;0.20;;;;;;;6.86;71.06;96604.19;6181418;23;20528;-61
2021/09/16 15:07:23;;;;;;;0.20;0.20;;;;;;;6.80;71.08;96606.06;6178717;23;20021;-62
2021/09/16 15:09:49;;;;;;;0.28;0.28;;;;;;;6.77;71.23;96609.34;6179968;23;20092;-64
2021/09/16 15:12:15;;;;;;;0.20;0.20;;;;;;;6.75;71.07;96606.06;6183218;23;20029;-61
2021/09/16 15:14:41;;;;;;;0.47;0.40;;;;;;;6.72;71.38;96601.94;6181475;23;20377;-63
2021/09/16 15:17:06;;;;;;;2.10;0.68;;;;;;;6.68;71.36;96600.03;6181664;23;20024;-64
2021/09/16 15:19:32;;;;;;;0.30;0.30;;;;;;;6.65;71.46;96594.03;6182473;23;20465;-61
2021/09/16 15:21:58;;;;;;;0.20;0.20;;;;;;;6.58;71.54;96598.88;6181255;23;20358;-64
2021/09/16 15:24:24;;;;;;;0.25;0.22;;;;;;;6.55;71.46;96595.84;6182709;23;20008;-62
2021/09/16 15:26:50;;;;;;;0.20;0.20;;;;;;;6.54;71.52;96589.59;6182252;23;20019;-62
2021/09/16 15:29:15;;;;;;;0.80;0.43;;;;;;;6.52;71.51;96586.28;6181359;23;20047;-61
2021/09/16 15:31:42;;;;;;;0.22;0.22;;;;;;;6.50;71.75;96583.00;6179650;23;20023;-63
2021/09/16 15:34:09;;;;;;;0.20;0.20;;;;;;;6.48;71.65;96587.91;6182400;23;20401;-62
2021/09/16 15:36:35;;;;;;;0.20;0.20;;;;;;;6.49;71.62;96581.38;6181398;23;20004;-62
2021/09/16 15:39:08;;;;;;;1.15;0.43;;;;;;;6.47;71.72;96583.53;6181402;23;20088;-63
2021/09/16 15:41:36;;;;;;;0.20;0.20;;;;;;;6.45;71.72;96583.00;6153938;23;20068;-62
2021/09/16 15:44:02;;;;;;;0.25;0.25;;;;;;;6.44;71.87;96575.88;6182719;23;20013;-62
2021/09/16 15:46:28;;;;;;;0.20;0.20;;;;;;;6.42;71.89;96581.59;6180624;23;20009;-64
2021/09/16 15:48:54;;;;;;;0.20;0.20;;;;;;;6.40;71.80;96572.03;6180992;23;20009;-62
2021/09/16 15:51:19;;;;;;;0.20;0.20;;;;;;;6.38;71.90;96576.94;6182257;23;20087;-60
2021/09/16 15:53:45;;;;;;;0.20;0.20;;;;;;;6.35;72.01;96563.84;6181056;23;20012;-62
2021/09/16 15:56:11;;;;;;;0.20;0.20;;;;;;;6.29;72.12;96574.69;6181771;23;20458;-65
2021/09/16 15:58:38;;;;;;;0.20;0.20;;;;;;;6.24;72.27;96562.94;6181448;23;20013;-63
2021/09/16 16:01:04;;;;;;;0.20;0.20;;;;;;;6.20;72.43;96568.09;6181896;23;20446;-64
2021/09/16 16:03:30;;;;;;;0.20;0.20;;;;;;;6.18;72.29;96564.81;6180784;23;20071;-62
2021/09/16 16:05:57;;;;;;;0.20;0.20;;;;;;;6.16;72.45;96563.44;6181650;23;20012;-63
2021/09/16 16:08:23;;;;;;;0.43;0.43;;;;;;;6.17;72.42;96562.34;6182336;23;20013;-64